Margaret Chase Smith — WTM3462 — position and weather

sailwx.info

Track history (hours):
 
Tides and Currents Weather Stations Pressure Air Temp Water Temp Dewpoint Dewpoint Depression Visibility Wind Speed Wind Dir Waves Ship Positions

Margaret Chase Smith

Owner: Maine State Ferry Service, ROCKLAND, ME. More information available from US FCC via Universal Licensing System and Coast Guard Vessel Documentation Center.

Last reported at 2017-Dec-17 00:54 UTC. Time now 2017-Dec-17 04:30 UTC.
Position N 44°17' W 068°57'.

Length 29 m.

Type: Passenger vessel. MMSI: 367191630.

Date/timePositionNaut miles runAvg speedWind from/ knotsBaromVisibWave heightAir tempDewpointWater temp
2017-Dec-17 00:54N 44°17' W 068°57'0 0.0
2017-Dec-16 22:14N 44°17' W 068°57'2 2.8
2017-Dec-16 21:39N 44°17' W 068°59'2 3.5
2017-Dec-16 21:13N 44°17' W 068°57'0 0.1
2017-Dec-16 19:15N 44°17' W 068°57'2 4.0
2017-Dec-16 18:42N 44°17' W 068°60'2 5.3
2017-Dec-16 18:16N 44°17' W 068°57'0 0.0
2017-Dec-16 15:15N 44°17' W 068°57'2 4.4
2017-Dec-16 14:42N 44°17' W 068°60'2 4.9
2017-Dec-16 14:13N 44°17' W 068°57'2 2.7
2017-Dec-16 13:39N 44°17' W 068°59'1 1.7
2017-Dec-16 13:09N 44°17' W 068°58'1 1.2
2017-Dec-16 12:38N 44°17' W 068°58'1 2.6
2017-Dec-16 12:08N 44°17' W 068°57'0 0.0
2017-Dec-16 12:00N 44°17' W 068°57'0 0.0
2017-Dec-16 11:31N 44°17' W 068°57'0 0.0
2017-Dec-16 10:56N 44°17' W 068°57'0 0.0
2017-Dec-16 10:30N 44°17' W 068°57'0 0.0
2017-Dec-16 09:59N 44°17' W 068°57'0 0.0
2017-Dec-16 09:29N 44°17' W 068°57'0 0.0
2017-Dec-16 08:58N 44°17' W 068°57'0 0.0
2017-Dec-16 08:26N 44°17' W 068°57'0 0.0
2017-Dec-16 07:51N 44°17' W 068°57'0 0.0
2017-Dec-16 06:56N 44°17' W 068°57'0 0.0
2017-Dec-16 06:23N 44°17' W 068°57'0 0.0
2017-Dec-16 05:23N 44°17' W 068°57'0 0.0
2017-Dec-16 01:50N 44°17' W 068°57'0 0.0
2017-Dec-15 22:20N 44°17' W 068°57'2 2.3
2017-Dec-15 21:39N 44°17' W 068°59'2 9.1
2017-Dec-15 21:29N 44°17' W 068°57'0 0.0
2017-Dec-15 19:15N 44°17' W 068°57'2 4.0
2017-Dec-15 18:46N 44°17' W 068°59'2 6.7
2017-Dec-15 18:29N 44°17' W 068°57'2 3.4
2017-Dec-15 17:47N 44°17' W 068°60'2 0.8
2017-Dec-15 15:13N 44°17' W 068°57'2 3.7
2017-Dec-15 14:42N 44°17' W 068°60'2 4.5
2017-Dec-15 14:13N 44°17' W 068°57'1 2.7
2017-Dec-15 13:41N 44°17' W 068°59'2 4.0
2017-Dec-15 13:18N 44°17' W 068°57'2 3.5
2017-Dec-15 12:43N 44°17' W 068°59'2 5.4
2017-Dec-15 12:20N 44°17' W 068°57'0 0.0
2017-Dec-15 10:31N 44°17' W 068°57'0 0.0
2017-Dec-15 10:19N 44°17' W 068°57'0 0.0
2017-Dec-15 09:51N 44°17' W 068°57'0 0.0
2017-Dec-15 09:26N 44°17' W 068°57'0 0.0
2017-Dec-15 08:41N 44°17' W 068°57'0 0.0
2017-Dec-15 08:13N 44°17' W 068°57'0 0.0
2017-Dec-15 07:55N 44°17' W 068°57'0 0.0
2017-Dec-15 07:31N 44°17' W 068°57'0 0.0
2017-Dec-15 06:37N 44°17' W 068°57'0 0.0
2017-Dec-15 06:31N 44°17' W 068°57'0 0.0
2017-Dec-15 05:56N 44°17' W 068°57'0 0.0
2017-Dec-15 00:12N 44°17' W 068°57'0 0.0
2017-Dec-14 18:30N 44°17' W 068°57'2 0.7
2017-Dec-14 14:44N 44°17' W 069°00'2 5.5
2017-Dec-14 14:17N 44°17' W 068°57'2 4.5
2017-Dec-14 13:45N 44°17' W 068°60'2 3.7
2017-Dec-14 13:15N 44°17' W 068°57'1 0.2
2017-Dec-14 10:45N 44°17' W 068°57'0 0.0
2017-Dec-14 10:24N 44°17' W 068°57'0 0.0
2017-Dec-14 10:00N 44°17' W 068°57'0 0.0
2017-Dec-14 09:26N 44°17' W 068°57'0 0.0
2017-Dec-14 08:45N 44°17' W 068°57'0 0.0
2017-Dec-14 08:29N 44°17' W 068°57'0 0.0
2017-Dec-14 07:59N 44°17' W 068°57'0 0.0
2017-Dec-14 07:29N 44°17' W 068°57'0 0.0
2017-Dec-14 06:54N 44°17' W 068°57'0 0.0
2017-Dec-14 06:29N 44°17' W 068°57'0 0.0
2017-Dec-14 05:42N 44°17' W 068°57'0 0.0
2017-Dec-14 04:56N 44°17' W 068°57'0 0.0
2017-Dec-14 04:02N 44°17' W 068°57'0 0.0
2017-Dec-13 22:14N 44°17' W 068°57'2 4.5
2017-Dec-13 21:43N 44°17' W 068°60'2 4.8
2017-Dec-13 21:15N 44°17' W 068°57'1 0.6
2017-Dec-13 19:07N 44°17' W 068°58'1 1.4
2017-Dec-13 18:15N 44°17' W 068°57'0 0.1
2017-Dec-13 15:44N 44°17' W 068°57'2 2.3
2017-Dec-13 14:43N 44°17' W 069°00'2 3.3
2017-Dec-13 14:10N 44°17' W 068°57'1 2.1
2017-Dec-13 13:41N 44°17' W 068°59'1 0.1
2017-Dec-12 22:13N 44°17' W 068°57'1 1.4
2017-Dec-12 21:38N 44°17' W 068°58'0 0.8
2017-Dec-12 21:12N 44°17' W 068°57'1 1.0
2017-Dec-12 20:37N 44°17' W 068°58'110.5
2017-Dec-12 20:30N 44°17' W 068°57'0 0.0
2017-Dec-12 19:59N 44°17' W 068°57'1 0.7
2017-Dec-12 19:11N 44°17' W 068°57'2 3.4
2017-Dec-12 18:44N 44°17' W 068°59'2 5.3
2017-Dec-12 18:21N 44°17' W 068°57'1 1.9
2017-Dec-12 17:37N 44°17' W 068°59'110.5
2017-Dec-12 17:30N 44°17' W 068°57'0 0.0
2017-Dec-12 16:59N 44°17' W 068°57'0 0.0
2017-Dec-12 16:18N 44°17' W 068°57'1 0.7
2017-Dec-12 15:10N 44°17' W 068°58'2 3.7
2017-Dec-12 14:42N 44°17' W 069°00'2 3.4
2017-Dec-12 14:11N 44°17' W 068°58'2 3.3
2017-Dec-12 13:40N 44°17' W 068°60'2 3.3
2017-Dec-12 13:11N 44°17' W 068°58'  
2017-Dec-09 22:02N 44°17' W 068°60'1 1.7
2017-Dec-09 21:42N 44°17' W 068°59'0 0.1
2017-Dec-09 18:39N 44°17' W 068°59'0 0.1
2017-Dec-09 15:07N 44°17' W 068°58'1 2.5
2017-Dec-09 14:42N 44°17' W 068°60'2 4.7
2017-Dec-09 14:14N 44°17' W 068°57'2 4.2
2017-Dec-09 13:43N 44°17' W 068°60'2 4.2
2017-Dec-09 13:13N 44°17' W 068°57'2 4.4
2017-Dec-09 12:43N 44°17' W 068°60'2 0.1
2017-Dec-08 19:17N 44°17' W 068°57'2 0.4
2017-Dec-08 15:04N 44°17' W 068°59'1 2.2
2017-Dec-08 14:34N 44°17' W 068°58'1 1.3
2017-Dec-08 14:06N 44°17' W 068°58'1 1.6
2017-Dec-08 13:41N 44°17' W 068°59'2 4.7
2017-Dec-08 13:16N 44°17' W 068°57'1 1.1
2017-Dec-08 12:35N 44°17' W 068°58'1 0.1
2017-Dec-07 22:15N 44°17' W 068°57'0 0.0
2017-Dec-07 19:12N 44°17' W 068°57'2 3.6
2017-Dec-07 18:40N 44°17' W 068°59'1 2.6
2017-Dec-07 18:12N 44°17' W 068°58'1 0.2
2017-Dec-07 15:05N 44°17' W 068°59'0 0.4
2017-Dec-07 14:39N 44°17' W 068°59'1 3.5
2017-Dec-07 14:14N 44°17' W 068°57'2 4.5
2017-Dec-07 13:44N 44°17' W 068°60'2 4.7
2017-Dec-07 13:14N 44°17' W 068°57'  
Track history (hours):
 
Tides and Currents Weather Stations Pressure Air Temp Water Temp Dewpoint Dewpoint Depression Visibility Wind Speed Wind Dir Waves Ship Positions

Margaret Chase Smith

Owner: Maine State Ferry Service, ROCKLAND, ME. More information available from US FCC via Universal Licensing System and Coast Guard Vessel Documentation Center.

Last reported at 2017-Dec-17 00:54 UTC. Time now 2017-Dec-17 04:30 UTC.
Position N 44°17' W 068°57'.

Length 29 m.

Type: Passenger vessel. MMSI: 367191630.

Date/timePositionNaut miles runAvg speedWind from/ knotsBaromVisibWave heightAir tempDewpointWater temp
2017-Dec-17 00:54N 44°17' W 068°57'0 0.0
2017-Dec-16 22:14N 44°17' W 068°57'2 2.8
2017-Dec-16 21:39N 44°17' W 068°59'2 3.5
2017-Dec-16 21:13N 44°17' W 068°57'0 0.1
2017-Dec-16 19:15N 44°17' W 068°57'2 4.0
2017-Dec-16 18:42N 44°17' W 068°60'2 5.3
2017-Dec-16 18:16N 44°17' W 068°57'0 0.0
2017-Dec-16 15:15N 44°17' W 068°57'2 4.4
2017-Dec-16 14:42N 44°17' W 068°60'2 4.9
2017-Dec-16 14:13N 44°17' W 068°57'2 2.7
2017-Dec-16 13:39N 44°17' W 068°59'1 1.7
2017-Dec-16 13:09N 44°17' W 068°58'1 1.2
2017-Dec-16 12:38N 44°17' W 068°58'1 2.6
2017-Dec-16 12:08N 44°17' W 068°57'0 0.0
2017-Dec-16 12:00N 44°17' W 068°57'0 0.0
2017-Dec-16 11:31N 44°17' W 068°57'0 0.0
2017-Dec-16 10:56N 44°17' W 068°57'0 0.0
2017-Dec-16 10:30N 44°17' W 068°57'0 0.0
2017-Dec-16 09:59N 44°17' W 068°57'0 0.0
2017-Dec-16 09:29N 44°17' W 068°57'0 0.0
2017-Dec-16 08:58N 44°17' W 068°57'0 0.0
2017-Dec-16 08:26N 44°17' W 068°57'0 0.0
2017-Dec-16 07:51N 44°17' W 068°57'0 0.0
2017-Dec-16 06:56N 44°17' W 068°57'0 0.0
2017-Dec-16 06:23N 44°17' W 068°57'0 0.0
2017-Dec-16 05:23N 44°17' W 068°57'0 0.0
2017-Dec-16 01:50N 44°17' W 068°57'0 0.0
2017-Dec-15 22:20N 44°17' W 068°57'2 2.3
2017-Dec-15 21:39N 44°17' W 068°59'2 9.1
2017-Dec-15 21:29N 44°17' W 068°57'0 0.0
2017-Dec-15 19:15N 44°17' W 068°57'2 4.0
2017-Dec-15 18:46N 44°17' W 068°59'2 6.7
2017-Dec-15 18:29N 44°17' W 068°57'2 3.4
2017-Dec-15 17:47N 44°17' W 068°60'2 0.8
2017-Dec-15 15:13N 44°17' W 068°57'2 3.7
2017-Dec-15 14:42N 44°17' W 068°60'2 4.5
2017-Dec-15 14:13N 44°17' W 068°57'1 2.7
2017-Dec-15 13:41N 44°17' W 068°59'2 4.0
2017-Dec-15 13:18N 44°17' W 068°57'2 3.5
2017-Dec-15 12:43N 44°17' W 068°59'2 5.4
2017-Dec-15 12:20N 44°17' W 068°57'0 0.0
2017-Dec-15 10:31N 44°17' W 068°57'0 0.0
2017-Dec-15 10:19N 44°17' W 068°57'0 0.0
2017-Dec-15 09:51N 44°17' W 068°57'0 0.0
2017-Dec-15 09:26N 44°17' W 068°57'0 0.0
2017-Dec-15 08:41N 44°17' W 068°57'0 0.0
2017-Dec-15 08:13N 44°17' W 068°57'0 0.0
2017-Dec-15 07:55N 44°17' W 068°57'0 0.0
2017-Dec-15 07:31N 44°17' W 068°57'0 0.0
2017-Dec-15 06:37N 44°17' W 068°57'0 0.0
2017-Dec-15 06:31N 44°17' W 068°57'0 0.0
2017-Dec-15 05:56N 44°17' W 068°57'0 0.0
2017-Dec-15 00:12N 44°17' W 068°57'0 0.0
2017-Dec-14 18:30N 44°17' W 068°57'2 0.7
2017-Dec-14 14:44N 44°17' W 069°00'2 5.5
2017-Dec-14 14:17N 44°17' W 068°57'2 4.5
2017-Dec-14 13:45N 44°17' W 068°60'2 3.7
2017-Dec-14 13:15N 44°17' W 068°57'1 0.2
2017-Dec-14 10:45N 44°17' W 068°57'0 0.0
2017-Dec-14 10:24N 44°17' W 068°57'0 0.0
2017-Dec-14 10:00N 44°17' W 068°57'0 0.0
2017-Dec-14 09:26N 44°17' W 068°57'0 0.0
2017-Dec-14 08:45N 44°17' W 068°57'0 0.0
2017-Dec-14 08:29N 44°17' W 068°57'0 0.0
2017-Dec-14 07:59N 44°17' W 068°57'0 0.0
2017-Dec-14 07:29N 44°17' W 068°57'0 0.0
2017-Dec-14 06:54N 44°17' W 068°57'0 0.0
2017-Dec-14 06:29N 44°17' W 068°57'0 0.0
2017-Dec-14 05:42N 44°17' W 068°57'0 0.0
2017-Dec-14 04:56N 44°17' W 068°57'0 0.0
2017-Dec-14 04:02N 44°17' W 068°57'0 0.0
2017-Dec-13 22:14N 44°17' W 068°57'2 4.5
2017-Dec-13 21:43N 44°17' W 068°60'2 4.8
2017-Dec-13 21:15N 44°17' W 068°57'1 0.6
2017-Dec-13 19:07N 44°17' W 068°58'1 1.4
2017-Dec-13 18:15N 44°17' W 068°57'0 0.1
2017-Dec-13 15:44N 44°17' W 068°57'2 2.3
2017-Dec-13 14:43N 44°17' W 069°00'2 3.3
2017-Dec-13 14:10N 44°17' W 068°57'1 2.1
2017-Dec-13 13:41N 44°17' W 068°59'1 0.1
2017-Dec-12 22:13N 44°17' W 068°57'1 1.4
2017-Dec-12 21:38N 44°17' W 068°58'0 0.8
2017-Dec-12 21:12N 44°17' W 068°57'1 1.0
2017-Dec-12 20:37N 44°17' W 068°58'110.5
2017-Dec-12 20:30N 44°17' W 068°57'0 0.0
2017-Dec-12 19:59N 44°17' W 068°57'1 0.7
2017-Dec-12 19:11N 44°17' W 068°57'2 3.4
2017-Dec-12 18:44N 44°17' W 068°59'2 5.3
2017-Dec-12 18:21N 44°17' W 068°57'1 1.9
2017-Dec-12 17:37N 44°17' W 068°59'110.5
2017-Dec-12 17:30N 44°17' W 068°57'0 0.0
2017-Dec-12 16:59N 44°17' W 068°57'0 0.0
2017-Dec-12 16:18N 44°17' W 068°57'1 0.7
2017-Dec-12 15:10N 44°17' W 068°58'2 3.7
2017-Dec-12 14:42N 44°17' W 069°00'2 3.4
2017-Dec-12 14:11N 44°17' W 068°58'2 3.3
2017-Dec-12 13:40N 44°17' W 068°60'2 3.3
2017-Dec-12 13:11N 44°17' W 068°58'  
2017-Dec-09 22:02N 44°17' W 068°60'1 1.7
2017-Dec-09 21:42N 44°17' W 068°59'0 0.1
2017-Dec-09 18:39N 44°17' W 068°59'0 0.1
2017-Dec-09 15:07N 44°17' W 068°58'1 2.5
2017-Dec-09 14:42N 44°17' W 068°60'2 4.7
2017-Dec-09 14:14N 44°17' W 068°57'2 4.2
2017-Dec-09 13:43N 44°17' W 068°60'2 4.2
2017-Dec-09 13:13N 44°17' W 068°57'2 4.4
2017-Dec-09 12:43N 44°17' W 068°60'2 0.1
2017-Dec-08 19:17N 44°17' W 068°57'2 0.4
2017-Dec-08 15:04N 44°17' W 068°59'1 2.2
2017-Dec-08 14:34N 44°17' W 068°58'1 1.3
2017-Dec-08 14:06N 44°17' W 068°58'1 1.6
2017-Dec-08 13:41N 44°17' W 068°59'2 4.7
2017-Dec-08 13:16N 44°17' W 068°57'1 1.1
2017-Dec-08 12:35N 44°17' W 068°58'1 0.1
2017-Dec-07 22:15N 44°17' W 068°57'0 0.0
2017-Dec-07 19:12N 44°17' W 068°57'2 3.6
2017-Dec-07 18:40N 44°17' W 068°59'1 2.6
2017-Dec-07 18:12N 44°17' W 068°58'1 0.2
2017-Dec-07 15:05N 44°17' W 068°59'0 0.4
2017-Dec-07 14:39N 44°17' W 068°59'1 3.5
2017-Dec-07 14:14N 44°17' W 068°57'2 4.5
2017-Dec-07 13:44N 44°17' W 068°60'2 4.7
2017-Dec-07 13:14N 44°17' W 068°57'  

Dump ship's entire track history